sensor_id;sensor_type;location;lat;lon;timestamp;pressure;altitude;pressure_sealevel;temperature;humidity
33781;BME280;20097;50.832;19.100;2023-02-28T00:02:58;99554.16;;;-1.77;81.10
33781;BME280;20097;50.832;19.100;2023-02-28T00:08:02;99551.41;;;-1.72;82.44
33781;BME280;20097;50.832;19.100;2023-02-28T00:13:07;99559.97;;;-1.73;82.68
33781;BME280;20097;50.832;19.100;2023-02-28T00:18:12;99559.81;;;-1.89;90.30
33781;BME280;20097;50.832;19.100;2023-02-28T00:23:16;99563.06;;;-1.85;92.00
33781;BME280;20097;50.832;19.100;2023-02-28T00:28:21;99559.28;;;-1.77;92.99
33781;BME280;20097;50.832;19.100;2023-02-28T00:33:26;99557.00;;;-1.64;87.50
33781;BME280;20097;50.832;19.100;2023-02-28T00:38:31;99551.94;;;-1.84;85.75
33781;BME280;20097;50.832;19.100;2023-02-28T00:43:37;99550.75;;;-1.96;84.27
33781;BME280;20097;50.832;19.100;2023-02-28T00:48:43;99546.91;;;-2.06;88.82
33781;BME280;20097;50.832;19.100;2023-02-28T00:53:47;99545.19;;;-2.25;87.75
33781;BME280;20097;50.832;19.100;2023-02-28T00:58:52;99547.03;;;-2.49;84.81
33781;BME280;20097;50.832;19.100;2023-02-28T01:03:57;99529.47;;;-2.78;88.77
33781;BME280;20097;50.832;19.100;2023-02-28T01:09:02;99539.41;;;-2.92;86.85
33781;BME280;20097;50.832;19.100;2023-02-28T01:14:08;99540.66;;;-3.02;91.58
33781;BME280;20097;50.832;19.100;2023-02-28T01:19:13;99544.81;;;-3.21;91.49
33781;BME280;20097;50.832;19.100;2023-02-28T01:24:19;99531.75;;;-3.35;91.68
33781;BME280;20097;50.832;19.100;2023-02-28T01:29:24;99526.84;;;-3.41;94.02
33781;BME280;20097;50.832;19.100;2023-02-28T01:34:30;99530.72;;;-3.54;95.51
33781;BME280;20097;50.832;19.100;2023-02-28T01:39:34;99540.25;;;-3.58;97.95
33781;BME280;20097;50.832;19.100;2023-02-28T01:45:02;99532.00;;;-3.66;98.40
33781;BME280;20097;50.832;19.100;2023-02-28T01:50:11;99534.53;;;-3.87;99.83
33781;BME280;20097;50.832;19.100;2023-02-28T01:55:19;99530.34;;;-3.90;97.18
33781;BME280;20097;50.832;19.100;2023-02-28T02:00:26;99532.78;;;-3.87;96.69
33781;BME280;20097;50.832;19.100;2023-02-28T02:05:33;99539.06;;;-3.95;94.67
33781;BME280;20097;50.832;19.100;2023-02-28T02:10:40;99541.56;;;-3.94;93.10
33781;BME280;20097;50.832;19.100;2023-02-28T02:15:48;99539.13;;;-3.97;94.65
33781;BME280;20097;50.832;19.100;2023-02-28T02:26:55;99545.59;;;-3.88;95.59
33781;BME280;20097;50.832;19.100;2023-02-28T02:32:16;99541.34;;;-4.12;93.50
33781;BME280;20097;50.832;19.100;2023-02-28T02:37:29;99541.00;;;-4.27;97.89
33781;BME280;20097;50.832;19.100;2023-02-28T02:42:38;99532.34;;;-4.47;100.00
33781;BME280;20097;50.832;19.100;2023-02-28T02:47:43;99524.16;;;-4.57;100.00
33781;BME280;20097;50.832;19.100;2023-02-28T02:52:51;99524.47;;;-4.66;100.00
33781;BME280;20097;50.832;19.100;2023-02-28T02:57:59;99525.75;;;-4.79;100.00
33781;BME280;20097;50.832;19.100;2023-02-28T03:03:05;99525.81;;;-4.80;100.00
33781;BME280;20097;50.832;19.100;2023-02-28T03:08:12;99536.97;;;-4.84;100.00
33781;BME280;20097;50.832;19.100;2023-02-28T03:13:35;99542.69;;;-4.52;100.00
33781;BME280;20097;50.832;19.100;2023-02-28T03:18:48;99535.06;;;-4.78;100.00
33781;BME280;20097;50.832;19.100;2023-02-28T03:24:01;99542.84;;;-4.82;100.00
33781;BME280;20097;50.832;19.100;2023-02-28T03:29:09;99535.56;;;-4.93;100.00
33781;BME280;20097;50.832;19.100;2023-02-28T03:34:24;99539.44;;;-5.09;100.00
33781;BME280;20097;50.832;19.100;2023-02-28T03:39:35;99535.25;;;-4.84;100.00
33781;BME280;20097;50.832;19.100;2023-02-28T03:44:42;99538.53;;;-4.54;100.00
33781;BME280;20097;50.832;19.100;2023-02-28T03:49:49;99531.69;;;-4.54;100.00
33781;BME280;20097;50.832;19.100;2023-02-28T03:54:57;99534.88;;;-4.72;100.00
33781;BME280;20097;50.832;19.100;2023-02-28T04:00:06;99541.41;;;-4.65;100.00
33781;BME280;20097;50.832;19.100;2023-02-28T04:05:16;99533.44;;;-4.54;100.00
33781;BME280;20097;50.832;19.100;2023-02-28T04:10:21;99537.69;;;-4.55;100.00
33781;BME280;20097;50.832;19.100;2023-02-28T04:15:26;99541.94;;;-4.55;100.00
33781;BME280;20097;50.832;19.100;2023-02-28T04:20:30;99543.84;;;-4.86;100.00
33781;BME280;20097;50.832;19.100;2023-02-28T04:25:35;99542.03;;;-5.10;100.00
33781;BME280;20097;50.832;19.100;2023-02-28T04:30:40;99548.22;;;-4.91;100.00
33781;BME280;20097;50.832;19.100;2023-02-28T04:35:44;99546.19;;;-5.08;100.00
33781;BME280;20097;50.832;19.100;2023-02-28T04:40:50;99555.59;;;-5.10;100.00
33781;BME280;20097;50.832;19.100;2023-02-28T04:45:54;99559.28;;;-5.20;100.00
33781;BME280;20097;50.832;19.100;2023-02-28T04:51:00;99562.47;;;-5.41;100.00
33781;BME280;20097;50.832;19.100;2023-02-28T04:56:06;99569.16;;;-5.37;100.00
33781;BME280;20097;50.832;19.100;2023-02-28T05:01:22;99571.94;;;-5.46;100.00
33781;BME280;20097;50.832;19.100;2023-02-28T05:06:27;99579.19;;;-5.62;100.00
33781;BME280;20097;50.832;19.100;2023-02-28T05:11:34;99582.09;;;-5.75;100.00
33781;BME280;20097;50.832;19.100;2023-02-28T05:16:38;99575.78;;;-5.62;100.00
33781;BME280;20097;50.832;19.100;2023-02-28T05:21:49;99588.78;;;-5.71;100.00
33781;BME280;20097;50.832;19.100;2023-02-28T05:26:55;99582.22;;;-5.80;100.00
33781;BME280;20097;50.832;19.100;2023-02-28T05:31:59;99589.91;;;-5.52;100.00
33781;BME280;20097;50.832;19.100;2023-02-28T05:37:04;99588.00;;;-5.44;100.00
33781;BME280;20097;50.832;19.100;2023-02-28T05:42:10;99600.56;;;-5.39;100.00
33781;BME280;20097;50.832;19.100;2023-02-28T05:47:13;99601.88;;;-5.26;100.00
33781;BME280;20097;50.832;19.100;2023-02-28T05:52:18;99613.09;;;-5.03;100.00
33781;BME280;20097;50.832;19.100;2023-02-28T05:57:24;99619.19;;;-4.81;100.00
33781;BME280;20097;50.832;19.100;2023-02-28T06:02:28;99622.81;;;-4.62;100.00
33781;BME280;20097;50.832;19.100;2023-02-28T06:07:32;99631.75;;;-4.49;100.00
33781;BME280;20097;50.832;19.100;2023-02-28T06:12:38;99635.41;;;-4.30;100.00
33781;BME280;20097;50.832;19.100;2023-02-28T06:17:44;99641.81;;;-4.18;100.00
33781;BME280;20097;50.832;19.100;2023-02-28T06:22:49;99643.72;;;-3.98;100.00
33781;BME280;20097;50.832;19.100;2023-02-28T06:27:55;99656.63;;;-3.78;100.00
33781;BME280;20097;50.832;19.100;2023-02-28T06:32:59;99650.78;;;-3.57;100.00
33781;BME280;20097;50.832;19.100;2023-02-28T06:38:04;99657.06;;;-3.43;100.00
33781;BME280;20097;50.832;19.100;2023-02-28T06:43:09;99651.31;;;-3.25;100.00
33781;BME280;20097;50.832;19.100;2023-02-28T06:48:16;99665.13;;;-3.07;100.00
33781;BME280;20097;50.832;19.100;2023-02-28T06:53:20;99668.03;;;-2.93;100.00
33781;BME280;20097;50.832;19.100;2023-02-28T06:58:25;99666.69;;;-2.80;100.00
33781;BME280;20097;50.832;19.100;2023-02-28T07:03:29;99669.47;;;-2.64;100.00
33781;BME280;20097;50.832;19.100;2023-02-28T07:08:36;99654.44;;;-2.50;100.00
33781;BME280;20097;50.832;19.100;2023-02-28T07:13:41;99663.94;;;-2.32;100.00
33781;BME280;20097;50.832;19.100;2023-02-28T07:18:45;99659.06;;;-2.17;100.00
33781;BME280;20097;50.832;19.100;2023-02-28T07:23:49;99667.66;;;-1.98;100.00
33781;BME280;20097;50.832;19.100;2023-02-28T07:28:55;99660.38;;;-1.67;95.73
33781;BME280;20097;50.832;19.100;2023-02-28T07:33:59;99668.91;;;-1.09;91.92
33781;BME280;20097;50.832;19.100;2023-02-28T07:39:04;99672.03;;;-1.21;88.63
33781;BME280;20097;50.832;19.100;2023-02-28T07:44:10;99668.38;;;-0.97;89.34
33781;BME280;20097;50.832;19.100;2023-02-28T07:49:14;99663.22;;;-1.15;85.65
33781;BME280;20097;50.832;19.100;2023-02-28T07:54:18;99653.75;;;-1.13;85.24
33781;BME280;20097;50.832;19.100;2023-02-28T07:59:24;99656.41;;;-0.96;85.04
33781;BME280;20097;50.832;19.100;2023-02-28T08:04:28;99649.75;;;-1.00;83.92
33781;BME280;20097;50.832;19.100;2023-02-28T08:09:35;99650.09;;;-0.89;80.64
33781;BME280;20097;50.832;19.100;2023-02-28T08:14:40;99646.44;;;-0.65;81.07
33781;BME280;20097;50.832;19.100;2023-02-28T08:19:45;99659.97;;;-0.63;74.75
33781;BME280;20097;50.832;19.100;2023-02-28T08:24:49;99653.75;;;-0.58;74.59
33781;BME280;20097;50.832;19.100;2023-02-28T08:29:55;99663.38;;;-0.44;71.28
33781;BME280;20097;50.832;19.100;2023-02-28T08:34:59;99661.13;;;-0.33;70.79
33781;BME280;20097;50.832;19.100;2023-02-28T08:40:06;99661.88;;;-0.31;69.66
33781;BME280;20097;50.832;19.100;2023-02-28T08:45:12;99665.25;;;-0.31;68.63
33781;BME280;20097;50.832;19.100;2023-02-28T08:50:17;99652.72;;;-0.18;69.27
33781;BME280;20097;50.832;19.100;2023-02-28T08:55:21;99657.84;;;-0.01;69.89
33781;BME280;20097;50.832;19.100;2023-02-28T09:00:27;99660.84;;;0.07;68.59
33781;BME280;20097;50.832;19.100;2023-02-28T09:05:31;99662.53;;;0.25;69.39
33781;BME280;20097;50.832;19.100;2023-02-28T09:10:35;99668.88;;;0.35;68.94
33781;BME280;20097;50.832;19.100;2023-02-28T09:15:41;99669.72;;;0.36;68.55
33781;BME280;20097;50.832;19.100;2023-02-28T09:20:45;99663.69;;;0.52;67.49
33781;BME280;20097;50.832;19.100;2023-02-28T09:25:50;99664.28;;;0.57;67.40
33781;BME280;20097;50.832;19.100;2023-02-28T09:30:56;99671.66;;;0.80;68.63
33781;BME280;20097;50.832;19.100;2023-02-28T09:36:02;99671.53;;;0.99;67.39
33781;BME280;20097;50.832;19.100;2023-02-28T09:41:11;99671.38;;;1.02;65.40
33781;BME280;20097;50.832;19.100;2023-02-28T09:46:27;99670.38;;;1.04;66.57
33781;BME280;20097;50.832;19.100;2023-02-28T09:51:43;99677.78;;;1.10;66.23
33781;BME280;20097;50.832;19.100;2023-02-28T09:56:50;99674.03;;;1.00;65.01
33781;BME280;20097;50.832;19.100;2023-02-28T10:02:02;99663.25;;;1.09;66.67
33781;BME280;20097;50.832;19.100;2023-02-28T10:07:16;99673.16;;;1.17;65.42
33781;BME280;20097;50.832;19.100;2023-02-28T10:12:22;99671.22;;;1.05;64.83
33781;BME280;20097;50.832;19.100;2023-02-28T10:17:32;99670.63;;;1.00;63.86
33781;BME280;20097;50.832;19.100;2023-02-28T10:22:58;99674.53;;;1.07;64.21
33781;BME280;20097;50.832;19.100;2023-02-28T10:28:10;99664.34;;;1.21;64.96
33781;BME280;20097;50.832;19.100;2023-02-28T10:33:23;99666.06;;;1.20;63.96
33781;BME280;20097;50.832;19.100;2023-02-28T10:38:31;99664.94;;;1.26;63.23
33781;BME280;20097;50.832;19.100;2023-02-28T10:43:37;99663.09;;;1.43;63.21
33781;BME280;20097;50.832;19.100;2023-02-28T10:48:44;99661.28;;;1.46;62.10
33781;BME280;20097;50.832;19.100;2023-02-28T10:53:51;99661.91;;;1.65;62.38
33781;BME280;20097;50.832;19.100;2023-02-28T10:59:24;99652.28;;;1.68;61.42
33781;BME280;20097;50.832;19.100;2023-02-28T11:04:35;99655.00;;;1.81;61.56
33781;BME280;20097;50.832;19.100;2023-02-28T11:09:45;99654.78;;;1.70;59.79
33781;BME280;20097;50.832;19.100;2023-02-28T11:14:52;99650.78;;;1.80;60.13
33781;BME280;20097;50.832;19.100;2023-02-28T11:20:00;99654.91;;;1.98;59.92
33781;BME280;20097;50.832;19.100;2023-02-28T11:25:07;99657.25;;;1.71;58.64
33781;BME280;20097;50.832;19.100;2023-02-28T11:30:31;99641.66;;;2.47;61.14
33781;BME280;20097;50.832;19.100;2023-02-28T11:35:38;99643.16;;;2.65;58.90
33781;BME280;20097;50.832;19.100;2023-02-28T11:40:46;99639.16;;;2.32;61.00
33781;BME280;20097;50.832;19.100;2023-02-28T11:46:04;99634.28;;;2.27;60.19
33781;BME280;20097;50.832;19.100;2023-02-28T11:51:15;99629.25;;;2.40;60.11
33781;BME280;20097;50.832;19.100;2023-02-28T11:56:25;99627.69;;;2.51;60.40
33781;BME280;20097;50.832;19.100;2023-02-28T12:01:38;99625.56;;;2.58;59.32
33781;BME280;20097;50.832;19.100;2023-02-28T12:06:52;99626.50;;;2.85;59.85
33781;BME280;20097;50.832;19.100;2023-02-28T12:12:02;99614.34;;;2.73;58.81
33781;BME280;20097;50.832;19.100;2023-02-28T12:17:15;99599.16;;;2.54;59.48
33781;BME280;20097;50.832;19.100;2023-02-28T12:22:32;99601.09;;;2.51;59.84
33781;BME280;20097;50.832;19.100;2023-02-28T12:27:42;99594.91;;;2.39;59.77
33781;BME280;20097;50.832;19.100;2023-02-28T12:32:49;99597.69;;;2.50;59.72
33781;BME280;20097;50.832;19.100;2023-02-28T12:37:59;99593.38;;;2.65;58.91
33781;BME280;20097;50.832;19.100;2023-02-28T12:43:07;99588.00;;;2.82;59.28
33781;BME280;20097;50.832;19.100;2023-02-28T12:48:14;99583.59;;;2.84;58.51
33781;BME280;20097;50.832;19.100;2023-02-28T12:53:24;99582.81;;;2.96;58.55
33781;BME280;20097;50.832;19.100;2023-02-28T12:58:33;99579.28;;;3.11;58.90
33781;BME280;20097;50.832;19.100;2023-02-28T13:03:54;99582.22;;;3.19;58.64
33781;BME280;20097;50.832;19.100;2023-02-28T13:09:08;99577.47;;;3.13;58.59
33781;BME280;20097;50.832;19.100;2023-02-28T13:14:24;99580.44;;;3.34;57.96
33781;BME280;20097;50.832;19.100;2023-02-28T13:19:31;99580.97;;;3.65;57.26
33781;BME280;20097;50.832;19.100;2023-02-28T13:24:43;99581.59;;;3.42;55.97
33781;BME280;20097;50.832;19.100;2023-02-28T13:29:47;99581.88;;;3.64;54.63
33781;BME280;20097;50.832;19.100;2023-02-28T13:40:39;99570.19;;;3.46;55.27
33781;BME280;20097;50.832;19.100;2023-02-28T13:46:08;99570.84;;;3.62;55.92
33781;BME280;20097;50.832;19.100;2023-02-28T13:51:28;99569.66;;;3.54;56.06
33781;BME280;20097;50.832;19.100;2023-02-28T13:56:47;99555.13;;;3.53;56.37
33781;BME280;20097;50.832;19.100;2023-02-28T14:02:01;99554.50;;;3.49;56.60
33781;BME280;20097;50.832;19.100;2023-02-28T14:07:07;99554.53;;;3.74;56.77
33781;BME280;20097;50.832;19.100;2023-02-28T14:12:53;99556.97;;;4.02;55.63
33781;BME280;20097;50.832;19.100;2023-02-28T14:17:59;99552.53;;;4.04;55.04
33781;BME280;20097;50.832;19.100;2023-02-28T14:23:08;99570.31;;;4.34;55.10
33781;BME280;20097;50.832;19.100;2023-02-28T14:28:20;99561.59;;;4.10;55.78
33781;BME280;20097;50.832;19.100;2023-02-28T14:33:30;99553.84;;;3.85;56.12
33781;BME280;20097;50.832;19.100;2023-02-28T14:38:37;99549.22;;;3.51;56.54
33781;BME280;20097;50.832;19.100;2023-02-28T14:43:52;99539.84;;;3.23;57.49
33781;BME280;20097;50.832;19.100;2023-02-28T14:48:57;99542.53;;;3.22;57.89
33781;BME280;20097;50.832;19.100;2023-02-28T14:54:02;99533.38;;;2.90;58.12
33781;BME280;20097;50.832;19.100;2023-02-28T14:59:23;99530.84;;;2.75;59.12
33781;BME280;20097;50.832;19.100;2023-02-28T15:04:28;99519.44;;;2.65;59.71
33781;BME280;20097;50.832;19.100;2023-02-28T15:09:34;99516.00;;;2.79;60.51
33781;BME280;20097;50.832;19.100;2023-02-28T15:14:42;99505.91;;;2.62;60.75
33781;BME280;20097;50.832;19.100;2023-02-28T15:19:50;99510.69;;;2.54;61.46
33781;BME280;20097;50.832;19.100;2023-02-28T15:24:55;99501.69;;;2.33;61.07
33781;BME280;20097;50.832;19.100;2023-02-28T15:30:07;99495.28;;;2.26;62.07
33781;BME280;20097;50.832;19.100;2023-02-28T15:35:20;99484.69;;;2.16;63.08
33781;BME280;20097;50.832;19.100;2023-02-28T15:40:32;99486.81;;;2.10;63.85
33781;BME280;20097;50.832;19.100;2023-02-28T15:45:44;99484.41;;;2.07;64.23
33781;BME280;20097;50.832;19.100;2023-02-28T15:50:51;99487.53;;;1.84;64.67
33781;BME280;20097;50.832;19.100;2023-02-28T15:55:59;99484.38;;;1.65;67.42
33781;BME280;20097;50.832;19.100;2023-02-28T16:01:15;99482.28;;;1.41;67.46
33781;BME280;20097;50.832;19.100;2023-02-28T16:06:33;99478.41;;;1.34;67.73
33781;BME280;20097;50.832;19.100;2023-02-28T16:11:40;99482.22;;;1.13;69.82
33781;BME280;20097;50.832;19.100;2023-02-28T16:16:48;99472.06;;;0.81;71.58
33781;BME280;20097;50.832;19.100;2023-02-28T16:21:53;99487.38;;;0.51;73.75
33781;BME280;20097;50.832;19.100;2023-02-28T16:26:57;99482.22;;;0.20;76.18
33781;BME280;20097;50.832;19.100;2023-02-28T16:32:04;99489.22;;;0.01;76.73
33781;BME280;20097;50.832;19.100;2023-02-28T16:37:13;99490.03;;;-0.31;80.13
33781;BME280;20097;50.832;19.100;2023-02-28T16:42:20;99507.59;;;-0.41;83.71
33781;BME280;20097;50.832;19.100;2023-02-28T16:47:27;99515.34;;;-0.42;82.89
33781;BME280;20097;50.832;19.100;2023-02-28T16:52:34;99516.28;;;-0.60;84.31
33781;BME280;20097;50.832;19.100;2023-02-28T16:57:38;99527.34;;;-0.60;87.22
33781;BME280;20097;50.832;19.100;2023-02-28T17:02:45;99522.91;;;-0.56;87.93
33781;BME280;20097;50.832;19.100;2023-02-28T17:07:49;99519.59;;;-0.75;89.05
33781;BME280;20097;50.832;19.100;2023-02-28T17:12:54;99513.59;;;-0.93;91.81
33781;BME280;20097;50.832;19.100;2023-02-28T17:18:17;99525.03;;;-1.18;95.45
33781;BME280;20097;50.832;19.100;2023-02-28T17:23:22;99525.03;;;-1.18;96.96
33781;BME280;20097;50.832;19.100;2023-02-28T17:28:26;99530.47;;;-1.24;97.30
33781;BME280;20097;50.832;19.100;2023-02-28T17:33:32;99529.75;;;-1.28;97.42
33781;BME280;20097;50.832;19.100;2023-02-28T17:38:36;99531.53;;;-1.28;97.27
33781;BME280;20097;50.832;19.100;2023-02-28T17:43:40;99527.22;;;-1.47;99.22
33781;BME280;20097;50.832;19.100;2023-02-28T17:48:46;99531.22;;;-1.60;99.70
33781;BME280;20097;50.832;19.100;2023-02-28T17:53:50;99524.00;;;-1.89;100.00
33781;BME280;20097;50.832;19.100;2023-02-28T17:58:56;99532.19;;;-1.81;100.00
33781;BME280;20097;50.832;19.100;2023-02-28T18:04:02;99532.91;;;-1.79;100.00
33781;BME280;20097;50.832;19.100;2023-02-28T18:09:06;99529.13;;;-1.89;100.00
33781;BME280;20097;50.832;19.100;2023-02-28T18:14:10;99534.19;;;-2.07;100.00
33781;BME280;20097;50.832;19.100;2023-02-28T18:19:16;99529.06;;;-2.07;100.00
33781;BME280;20097;50.832;19.100;2023-02-28T18:24:21;99537.59;;;-2.07;100.00
33781;BME280;20097;50.832;19.100;2023-02-28T18:29:27;99526.44;;;-2.06;100.00
33781;BME280;20097;50.832;19.100;2023-02-28T18:34:35;99527.41;;;-2.28;100.00
33781;BME280;20097;50.832;19.100;2023-02-28T18:39:39;99532.72;;;-2.33;100.00
33781;BME280;20097;50.832;19.100;2023-02-28T18:44:43;99532.22;;;-2.41;100.00
33781;BME280;20097;50.832;19.100;2023-02-28T18:49:48;99542.81;;;-2.30;100.00
33781;BME280;20097;50.832;19.100;2023-02-28T18:54:52;99534.00;;;-2.43;100.00
33781;BME280;20097;50.832;19.100;2023-02-28T18:59:57;99530.06;;;-2.71;100.00
33781;BME280;20097;50.832;19.100;2023-02-28T19:05:02;99526.56;;;-2.69;100.00
33781;BME280;20097;50.832;19.100;2023-02-28T19:10:07;99520.03;;;-2.76;100.00
33781;BME280;20097;50.832;19.100;2023-02-28T19:15:12;99515.88;;;-2.78;100.00
33781;BME280;20097;50.832;19.100;2023-02-28T19:20:18;99536.91;;;-2.94;100.00
33781;BME280;20097;50.832;19.100;2023-02-28T19:25:22;99536.06;;;-2.94;100.00
33781;BME280;20097;50.832;19.100;2023-02-28T19:30:26;99531.88;;;-2.95;100.00
33781;BME280;20097;50.832;19.100;2023-02-28T19:35:32;99535.63;;;-3.27;100.00
33781;BME280;20097;50.832;19.100;2023-02-28T19:40:36;99529.84;;;-3.30;100.00
33781;BME280;20097;50.832;19.100;2023-02-28T19:45:40;99537.44;;;-3.29;100.00
33781;BME280;20097;50.832;19.100;2023-02-28T19:50:46;99541.53;;;-3.48;100.00
33781;BME280;20097;50.832;19.100;2023-02-28T19:55:50;99544.41;;;-3.55;100.00
33781;BME280;20097;50.832;19.100;2023-02-28T20:00:56;99547.94;;;-3.59;100.00
33781;BME280;20097;50.832;19.100;2023-02-28T20:06:06;99544.09;;;-3.48;100.00
33781;BME280;20097;50.832;19.100;2023-02-28T20:11:12;99537.09;;;-3.43;100.00
33781;BME280;20097;50.832;19.100;2023-02-28T20:16:17;99532.00;;;-3.66;100.00
33781;BME280;20097;50.832;19.100;2023-02-28T20:21:22;99539.16;;;-3.75;100.00
33781;BME280;20097;50.832;19.100;2023-02-28T20:26:26;99527.66;;;-3.85;100.00
33781;BME280;20097;50.832;19.100;2023-02-28T20:31:31;99535.34;;;-3.87;100.00
33781;BME280;20097;50.832;19.100;2023-02-28T20:36:36;99518.22;;;-3.83;100.00
33781;BME280;20097;50.832;19.100;2023-02-28T20:41:40;99522.31;;;-3.79;100.00
33781;BME280;20097;50.832;19.100;2023-02-28T20:46:45;99518.56;;;-3.92;100.00
33781;BME280;20097;50.832;19.100;2023-02-28T20:51:50;99511.44;;;-4.07;100.00
33781;BME280;20097;50.832;19.100;2023-02-28T20:56:54;99525.31;;;-3.91;100.00
33781;BME280;20097;50.832;19.100;2023-02-28T21:01:58;99522.41;;;-4.05;100.00
33781;BME280;20097;50.832;19.100;2023-02-28T21:07:03;99537.09;;;-4.12;100.00
33781;BME280;20097;50.832;19.100;2023-02-28T21:12:08;99527.88;;;-4.16;100.00
33781;BME280;20097;50.832;19.100;2023-02-28T21:17:12;99530.06;;;-4.05;100.00
33781;BME280;20097;50.832;19.100;2023-02-28T21:22:17;99525.31;;;-4.16;100.00
33781;BME280;20097;50.832;19.100;2023-02-28T21:27:21;99528.88;;;-4.20;100.00
33781;BME280;20097;50.832;19.100;2023-02-28T21:32:25;99531.16;;;-4.12;100.00
33781;BME280;20097;50.832;19.100;2023-02-28T21:37:30;99532.72;;;-4.33;100.00
33781;BME280;20097;50.832;19.100;2023-02-28T21:42:34;99526.09;;;-4.14;100.00
33781;BME280;20097;50.832;19.100;2023-02-28T21:47:39;99512.31;;;-3.84;100.00
33781;BME280;20097;50.832;19.100;2023-02-28T21:52:45;99520.03;;;-4.10;100.00
33781;BME280;20097;50.832;19.100;2023-02-28T21:57:49;99528.88;;;-4.20;100.00
33781;BME280;20097;50.832;19.100;2023-02-28T22:02:54;99532.09;;;-4.15;100.00
33781;BME280;20097;50.832;19.100;2023-02-28T22:08:00;99532.22;;;-4.43;100.00
33781;BME280;20097;50.832;19.100;2023-02-28T22:13:04;99542.22;;;-4.63;100.00
33781;BME280;20097;50.832;19.100;2023-02-28T22:18:08;99541.19;;;-4.83;100.00
33781;BME280;20097;50.832;19.100;2023-02-28T22:23:13;99537.25;;;-4.67;100.00
33781;BME280;20097;50.832;19.100;2023-02-28T22:28:18;99550.97;;;-4.71;100.00
33781;BME280;20097;50.832;19.100;2023-02-28T22:33:22;99547.66;;;-5.01;100.00
33781;BME280;20097;50.832;19.100;2023-02-28T22:38:27;99567.50;;;-4.84;100.00
33781;BME280;20097;50.832;19.100;2023-02-28T22:43:37;99557.97;;;-4.78;100.00
33781;BME280;20097;50.832;19.100;2023-02-28T22:48:41;99571.59;;;-4.53;100.00
33781;BME280;20097;50.832;19.100;2023-02-28T22:53:47;99568.44;;;-4.87;100.00
33781;BME280;20097;50.832;19.100;2023-02-28T22:58:53;99555.63;;;-4.84;100.00
33781;BME280;20097;50.832;19.100;2023-02-28T23:03:58;99555.94;;;-4.94;100.00
33781;BME280;20097;50.832;19.100;2023-02-28T23:09:06;99555.53;;;-4.81;100.00
33781;BME280;20097;50.832;19.100;2023-02-28T23:14:12;99555.53;;;-5.08;100.00
33781;BME280;20097;50.832;19.100;2023-02-28T23:19:21;99550.66;;;-5.14;100.00
33781;BME280;20097;50.832;19.100;2023-02-28T23:24:30;99549.16;;;-5.21;100.00
33781;BME280;20097;50.832;19.100;2023-02-28T23:29:34;99552.50;;;-5.19;100.00
33781;BME280;20097;50.832;19.100;2023-02-28T23:34:38;99558.63;;;-5.26;100.00
33781;BME280;20097;50.832;19.100;2023-02-28T23:39:44;99558.69;;;-5.28;100.00
33781;BME280;20097;50.832;19.100;2023-02-28T23:44:48;99553.41;;;-5.22;100.00
33781;BME280;20097;50.832;19.100;2023-02-28T23:49:52;99551.91;;;-5.27;100.00
33781;BME280;20097;50.832;19.100;2023-02-28T23:54:57;99547.81;;;-5.33;100.00
